Time;durP1;ratioP1;P1;durP2;ratioP2;P2;SDS_P1;SDS_P2;PMS_P1;PMS_P2;Temp;Humidity;BMP_temperature;BMP_pressure;BME280_temperature;BME280_humidity;BME280_pressure;Samples;Min_cycle;Max_cycle;Signal;HPM_P1;HPM_P2
2022/09/21 00:01:25;;;;;;;6.53;4.43;;;9.90;99.90;;;;;;5086776;28;20209;-80
2022/09/21 00:03:54;;;;;;;6.30;3.90;;;9.70;99.90;;;;;;5094881;28;20200;-81
2022/09/21 00:06:23;;;;;;;6.37;4.00;;;9.60;99.90;;;;;;5090799;28;20216;-78
2022/09/21 00:08:51;;;;;;;4.37;3.93;;;9.60;99.90;;;;;;5091536;28;20200;-81
2022/09/21 00:11:20;;;;;;;6.17;4.00;;;9.50;99.90;;;;;;5088896;28;20843;-80
2022/09/21 00:13:47;;;;;;;6.03;4.07;;;9.30;99.90;;;;;;5094180;28;20197;-81
2022/09/21 00:16:16;;;;;;;6.17;3.60;;;9.40;99.90;;;;;;5091546;28;20217;-79
2022/09/21 00:18:44;;;;;;;6.77;3.73;;;9.40;99.90;;;;;;5089589;28;20698;-80
2022/09/21 00:21:14;;;;;;;4.57;3.60;;;9.30;99.90;;;;;;5094182;28;20196;-81
2022/09/21 00:23:43;;;;;;;4.40;3.60;;;9.30;99.90;;;;;;5087422;28;20574;-81
2022/09/21 00:26:12;;;;;;;6.50;3.77;;;9.30;99.90;;;;;;5094064;28;20575;-81
2022/09/21 00:28:41;;;;;;;5.80;3.90;;;9.30;99.90;;;;;;5084957;28;20201;-81
2022/09/21 00:31:11;;;;;;;5.47;4.20;;;9.40;99.90;;;;;;5108734;27;20196;-82
2022/09/21 00:33:39;;;;;;;8.43;4.17;;;9.40;99.90;;;;;;5090478;28;20686;-78
2022/09/21 00:36:09;;;;;;;5.53;4.87;;;9.30;99.90;;;;;;5095298;28;20216;-77
2022/09/21 00:38:38;;;;;;;5.43;4.27;;;9.20;99.90;;;;;;5097247;28;20204;-81
2022/09/21 00:41:07;;;;;;;4.93;4.13;;;9.10;99.90;;;;;;5088536;28;20208;-79
2022/09/21 00:43:36;;;;;;;6.43;3.93;;;9.20;99.90;;;;;;5088798;28;20201;-81
2022/09/21 00:46:07;;;;;;;4.73;3.90;;;9.10;99.90;;;;;;5088942;28;20205;-81
2022/09/21 00:48:34;;;;;;;4.83;3.70;;;9.10;99.90;;;;;;5092966;28;20193;-80
2022/09/21 00:51:06;;;;;;;6.50;4.50;;;9.10;99.90;;;;;;5091709;28;20189;-79
2022/09/21 00:53:36;;;;;;;5.07;3.83;;;9.10;99.90;;;;;;5089125;28;20208;-81
2022/09/21 00:56:09;;;;;;;5.37;4.60;;;9.10;99.90;;;;;;5091358;28;20221;-81
2022/09/21 00:58:41;;;;;;;4.87;4.17;;;9.10;99.90;;;;;;5091796;28;20245;-80
2022/09/21 01:01:09;;;;;;;4.37;3.67;;;9.10;99.90;;;;;;5084991;28;20201;-80
2022/09/21 01:03:37;;;;;;;6.93;4.33;;;9.20;99.90;;;;;;5090661;28;20206;-81
2022/09/21 01:06:05;;;;;;;6.27;3.70;;;9.20;99.90;;;;;;5088210;28;20203;-81
2022/09/21 01:08:34;;;;;;;5.40;3.90;;;9.40;99.90;;;;;;5089018;28;20211;-80
2022/09/21 01:11:24;;;;;;;6.00;4.23;;;9.70;99.90;;;;;;5091771;28;20192;-79
2022/09/21 01:14:12;;;;;;;6.03;4.60;;;9.60;99.90;;;;;;5092669;28;20192;-81
2022/09/21 01:16:47;;;;;;;5.13;3.80;;;9.60;99.90;;;;;;5107776;27;20730;-81
2022/09/21 01:19:44;;;;;;;4.97;4.37;;;9.50;99.90;;;;;;5092013;28;20551;-80
2022/09/21 01:22:20;;;;;;;4.40;3.40;;;9.60;99.90;;;;;;5092645;28;20551;-81
2022/09/21 01:25:03;;;;;;;5.90;3.70;;;9.50;99.90;;;;;;5088186;28;20200;-81
2022/09/21 01:28:12;;;;;;;5.80;4.30;;;9.50;99.90;;;;;;5088065;28;20622;-81
2022/09/21 01:30:43;;;;;;;6.60;4.73;;;9.60;99.90;;;;;;5013191;28;20207;-81
2022/09/21 01:33:17;;;;;;;6.07;4.80;;;9.30;99.90;;;;;;5013353;28;20211;-80
2022/09/21 01:35:49;;;;;;;7.43;4.03;;;9.30;99.90;;;;;;5064540;28;20213;-81
2022/09/21 01:38:21;;;;;;;5.57;4.50;;;9.30;99.90;;;;;;5091286;28;20181;-81
2022/09/21 01:40:52;;;;;;;6.37;4.40;;;9.30;99.90;;;;;;5092942;28;20197;-80
2022/09/21 01:43:24;;;;;;;7.27;4.47;;;9.20;99.90;;;;;;5090555;28;20536;-81
2022/09/21 01:45:57;;;;;;;7.10;4.60;;;9.20;99.90;;;;;;5091046;28;20192;-80
2022/09/21 01:48:27;;;;;;;6.37;4.10;;;9.20;99.90;;;;;;5091226;28;20205;-81
2022/09/21 01:50:57;;;;;;;6.73;4.57;;;9.20;99.90;;;;;;5090001;28;20586;-81
2022/09/21 01:53:32;;;;;;;5.70;4.30;;;9.20;99.90;;;;;;5090719;28;20209;-81
2022/09/21 01:56:04;;;;;;;6.90;4.27;;;9.10;99.90;;;;;;5085032;28;20216;-81
2022/09/21 01:58:36;;;;;;;5.27;4.33;;;9.10;99.90;;;;;;5091587;28;20214;-81
2022/09/21 02:01:06;;;;;;;6.17;4.13;;;9.20;99.90;;;;;;5100023;28;20194;-81
2022/09/21 02:03:39;;;;;;;6.17;4.30;;;9.20;99.90;;;;;;5105472;28;20204;-79
2022/09/21 02:06:08;;;;;;;4.90;3.90;;;9.10;99.90;;;;;;5088988;28;20196;-81
2022/09/21 02:08:37;;;;;;;4.30;3.90;;;9.20;99.90;;;;;;5094317;28;20212;-81
2022/09/21 02:11:06;;;;;;;7.47;4.53;;;9.10;99.90;;;;;;5095590;28;20196;-81
2022/09/21 02:13:36;;;;;;;5.20;4.27;;;9.10;99.90;;;;;;5089046;28;20189;-81
2022/09/21 02:16:17;;;;;;;5.83;4.43;;;9.10;99.90;;;;;;5089785;28;20213;-80
2022/09/21 02:18:56;;;;;;;4.87;4.23;;;9.20;99.90;;;;;;5088099;28;20188;-80
2022/09/21 02:21:30;;;;;;;6.77;4.83;;;9.30;99.90;;;;;;5086296;28;20193;-81
2022/09/21 02:24:08;;;;;;;5.80;5.23;;;9.20;99.90;;;;;;5091406;28;20196;-81
2022/09/21 02:26:44;;;;;;;5.40;4.73;;;9.20;99.90;;;;;;5086105;28;20232;-81
2022/09/21 02:29:20;;;;;;;6.97;4.70;;;9.10;99.90;;;;;;5087147;28;20201;-79
2022/09/21 02:31:52;;;;;;;6.57;4.47;;;9.10;99.90;;;;;;5107917;28;20224;-81
2022/09/21 02:34:25;;;;;;;5.93;4.43;;;9.10;99.90;;;;;;5094582;28;20204;-81
2022/09/21 02:36:57;;;;;;;4.87;4.37;;;9.10;99.90;;;;;;5092116;28;20227;-81
2022/09/21 02:39:32;;;;;;;4.40;4.00;;;9.10;99.90;;;;;;5091753;28;20200;-79
2022/09/21 02:42:06;;;;;;;4.73;4.23;;;9.00;99.90;;;;;;5092985;28;20196;-81
2022/09/21 02:44:39;;;;;;;4.07;3.67;;;9.00;99.90;;;;;;5086939;28;20196;-80
2022/09/21 02:47:15;;;;;;;4.80;4.17;;;8.90;99.90;;;;;;5095002;28;20212;-80
2022/09/21 02:49:50;;;;;;;4.97;4.13;;;8.90;99.90;;;;;;5091676;28;20197;-81
2022/09/21 02:52:19;;;;;;;5.67;4.47;;;8.90;99.90;;;;;;5096782;28;20207;-80
2022/09/21 02:54:49;;;;;;;5.27;4.43;;;8.80;99.90;;;;;;5093808;28;20197;-81
2022/09/21 02:57:20;;;;;;;5.53;3.60;;;8.80;99.90;;;;;;5089970;28;20823;-81
2022/09/21 02:59:47;;;;;;;4.47;3.83;;;8.60;99.90;;;;;;5092759;28;20202;-81
2022/09/21 03:02:16;;;;;;;4.60;3.57;;;8.70;99.90;;;;;;5090241;28;20208;-81
2022/09/21 03:04:47;;;;;;;5.63;3.90;;;8.70;99.90;;;;;;5096362;28;20193;-81
2022/09/21 03:07:15;;;;;;;6.03;4.13;;;8.70;99.90;;;;;;5093212;28;20217;-81
2022/09/21 03:09:43;;;;;;;9.10;3.90;;;8.70;99.90;;;;;;5093523;28;20200;-82
2022/09/21 03:12:10;;;;;;;5.13;4.50;;;8.80;99.90;;;;;;5094310;28;20212;-82
2022/09/21 03:14:38;;;;;;;5.53;4.10;;;8.50;99.90;;;;;;5089980;28;20193;-81
2022/09/21 03:17:05;;;;;;;4.50;3.90;;;8.50;99.90;;;;;;5092255;28;20227;-81
2022/09/21 03:19:34;;;;;;;5.80;3.87;;;8.40;99.90;;;;;;5095527;28;20275;-81
2022/09/21 03:22:02;;;;;;;7.90;4.53;;;8.30;99.90;;;;;;5092692;28;20193;-81
2022/09/21 03:24:47;;;;;;;5.13;4.63;;;8.40;99.90;;;;;;5093775;28;20207;-81
2022/09/21 03:27:16;;;;;;;5.53;4.67;;;8.30;99.90;;;;;;5094668;28;20219;-81
2022/09/21 03:29:43;;;;;;;5.03;4.17;;;8.40;99.90;;;;;;5093614;28;20212;-82
2022/09/21 03:32:12;;;;;;;5.73;3.63;;;8.40;99.90;;;;;;5095998;28;20207;-81
2022/09/21 03:34:41;;;;;;;6.97;4.70;;;8.50;99.90;;;;;;5095208;28;20197;-79
2022/09/21 03:37:09;;;;;;;6.60;4.63;;;8.50;99.90;;;;;;5093743;28;20582;-80
2022/09/21 03:39:37;;;;;;;4.80;3.80;;;8.60;99.90;;;;;;5096066;28;20200;-80
2022/09/21 03:42:04;;;;;;;6.13;4.10;;;8.50;99.90;;;;;;5088221;28;20203;-80
2022/09/21 03:44:32;;;;;;;4.60;4.10;;;8.60;99.90;;;;;;5090338;28;20539;-79
2022/09/21 03:47:00;;;;;;;4.80;3.97;;;8.60;99.90;;;;;;5090336;28;20228;-80
2022/09/21 03:49:28;;;;;;;4.30;3.90;;;8.60;99.90;;;;;;5092704;28;20208;-80
2022/09/21 03:51:57;;;;;;;5.20;4.03;;;8.60;99.90;;;;;;5091058;28;20197;-80
2022/09/21 03:54:25;;;;;;;4.80;3.77;;;8.60;99.90;;;;;;5091860;28;20200;-80
2022/09/21 03:56:52;;;;;;;4.77;4.20;;;8.60;99.90;;;;;;5093458;28;20209;-80
2022/09/21 03:59:20;;;;;;;6.03;4.47;;;8.60;99.90;;;;;;5090388;28;20586;-80
2022/09/21 04:01:47;;;;;;;5.90;3.87;;;8.50;99.90;;;;;;5103206;28;20189;-81
2022/09/21 04:04:15;;;;;;;5.40;4.40;;;8.50;99.90;;;;;;5109766;28;20215;-80
2022/09/21 04:06:45;;;;;;;5.07;3.70;;;8.50;99.90;;;;;;5111569;28;20220;-80
2022/09/21 04:09:13;;;;;;;6.13;4.27;;;8.50;99.90;;;;;;5108611;28;20210;-80
2022/09/21 04:11:41;;;;;;;6.33;4.43;;;8.50;99.90;;;;;;5107183;28;20187;-80
2022/09/21 04:14:11;;;;;;;5.90;4.27;;;8.30;99.90;;;;;;5111224;28;20215;-80
2022/09/21 04:16:38;;;;;;;6.60;4.30;;;8.30;99.90;;;;;;5111839;28;20212;-80
2022/09/21 04:19:06;;;;;;;4.60;4.13;;;8.30;99.90;;;;;;5106895;28;20193;-80
2022/09/21 04:21:33;;;;;;;7.03;4.30;;;8.30;99.90;;;;;;5112808;28;20201;-80
2022/09/21 04:24:02;;;;;;;4.20;3.83;;;8.30;99.90;;;;;;5113267;28;20220;-80
2022/09/21 04:26:32;;;;;;;5.27;4.20;;;8.40;99.90;;;;;;5115681;28;20203;-80
2022/09/21 04:29:00;;;;;;;3.80;3.50;;;8.40;99.90;;;;;;5114014;28;20203;-80
2022/09/21 04:31:29;;;;;;;5.73;3.73;;;8.30;99.90;;;;;;5113689;28;20189;-80
2022/09/21 04:33:58;;;;;;;5.17;3.70;;;8.30;99.90;;;;;;5115772;28;20180;-80
2022/09/21 04:36:27;;;;;;;4.10;3.67;;;8.30;99.90;;;;;;5113064;28;20201;-80
2022/09/21 04:38:55;;;;;;;4.40;4.00;;;8.30;99.90;;;;;;5111716;28;20173;-80
2022/09/21 04:41:23;;;;;;;4.60;3.30;;;8.20;99.90;;;;;;5113281;28;20201;-80
2022/09/21 04:43:51;;;;;;;3.83;3.37;;;8.30;99.90;;;;;;5113940;28;20200;-80
2022/09/21 04:46:20;;;;;;;5.87;3.83;;;8.20;99.90;;;;;;5106439;28;20229;-80
2022/09/21 04:48:48;;;;;;;4.93;3.60;;;8.30;99.90;;;;;;5111571;28;20195;-80
2022/09/21 04:51:17;;;;;;;4.40;4.00;;;8.30;99.90;;;;;;5111564;28;20181;-80
2022/09/21 04:53:45;;;;;;;3.63;3.33;;;8.10;99.90;;;;;;5114962;28;20189;-80
2022/09/21 04:56:15;;;;;;;6.30;4.03;;;7.90;99.90;;;;;;5114771;28;20218;-80
2022/09/21 04:58:42;;;;;;;5.63;4.20;;;7.90;99.90;;;;;;5113856;28;20212;-80
2022/09/21 05:01:11;;;;;;;8.60;4.43;;;7.90;99.90;;;;;;5112666;28;20200;-80
2022/09/21 05:03:39;;;;;;;7.43;4.30;;;8.00;99.90;;;;;;5113714;28;20196;-80
2022/09/21 05:06:08;;;;;;;4.97;4.40;;;8.00;99.90;;;;;;5115370;28;20199;-80
2022/09/21 05:11:21;;;;;;;5.50;4.30;;;7.80;99.90;;;;;;5110822;28;20187;-80
2022/09/21 05:13:49;;;;;;;5.83;4.60;;;7.90;99.90;;;;;;5107693;28;20203;-80
2022/09/21 05:16:19;;;;;;;4.77;4.07;;;8.10;99.90;;;;;;5107410;28;20228;-80
2022/09/21 05:18:46;;;;;;;4.67;4.17;;;8.10;99.90;;;;;;5111630;28;20223;-80
2022/09/21 05:21:15;;;;;;;8.53;4.67;;;8.20;99.90;;;;;;5113903;28;20201;-80
2022/09/21 05:23:42;;;;;;;5.77;4.03;;;8.10;99.90;;;;;;5107707;28;20201;-80
2022/09/21 05:26:10;;;;;;;4.67;3.27;;;7.90;99.90;;;;;;5106528;28;20203;-80
2022/09/21 05:28:38;;;;;;;5.00;4.13;;;8.00;99.90;;;;;;5115879;28;20200;-80
2022/09/21 05:31:19;;;;;;;5.40;3.93;;;7.90;99.90;;;;;;5112015;28;20197;-80
2022/09/21 05:33:52;;;;;;;6.27;4.80;;;8.00;99.90;;;;;;5111151;28;20203;-80
2022/09/21 05:36:35;;;;;;;6.53;4.50;;;8.10;99.90;;;;;;5126741;28;20446;-81
2022/09/21 05:39:03;;;;;;;6.17;4.60;;;8.10;99.90;;;;;;5115407;28;20220;-81
2022/09/21 05:41:32;;;;;;;5.10;3.80;;;8.10;99.90;;;;;;5106107;28;20203;-81
2022/09/21 05:44:00;;;;;;;5.60;4.27;;;8.20;99.90;;;;;;5115410;28;20204;-81
2022/09/21 05:46:37;;;;;;;5.53;4.47;;;8.20;99.90;;;;;;5114667;28;20226;-81
2022/09/21 05:49:15;;;;;;;5.53;4.63;;;8.20;99.90;;;;;;5114879;28;20196;-81
2022/09/21 05:51:52;;;;;;;7.50;5.83;;;8.20;99.90;;;;;;5110107;28;20186;-81
2022/09/21 05:54:25;;;;;;;8.30;4.77;;;8.30;99.90;;;;;;5114060;28;20193;-81
2022/09/21 05:56:59;;;;;;;7.80;5.43;;;8.30;99.90;;;;;;5111949;28;20212;-81
2022/09/21 05:59:41;;;;;;;9.10;4.93;;;8.40;99.90;;;;;;5111838;28;20184;-81
2022/09/21 06:02:19;;;;;;;6.07;4.83;;;8.50;99.90;;;;;;5107063;28;20207;-81
2022/09/21 06:04:49;;;;;;;8.80;5.77;;;8.70;99.90;;;;;;5112449;28;20183;-81
2022/09/21 06:07:16;;;;;;;8.63;5.57;;;8.70;99.90;;;;;;5105371;28;20215;-81
2022/09/21 06:09:44;;;;;;;7.33;6.10;;;8.80;99.90;;;;;;5114295;28;20563;-81
2022/09/21 06:12:11;;;;;;;7.00;5.67;;;8.80;99.90;;;;;;5111045;28;20181;-81
2022/09/21 06:14:39;;;;;;;7.00;6.30;;;9.00;99.90;;;;;;5113542;28;20181;-81
2022/09/21 06:17:06;;;;;;;7.80;5.90;;;9.00;99.90;;;;;;5109219;28;20201;-81
2022/09/21 06:19:33;;;;;;;10.20;6.10;;;9.00;99.90;;;;;;5104717;28;20177;-81
2022/09/21 06:22:02;;;;;;;7.90;6.77;;;9.00;99.90;;;;;;5109877;28;20195;-81
2022/09/21 06:24:30;;;;;;;7.90;6.13;;;9.10;99.90;;;;;;5105026;28;20207;-81
2022/09/21 06:26:57;;;;;;;7.30;6.43;;;9.20;99.90;;;;;;5109582;28;20212;-81
2022/09/21 06:29:24;;;;;;;8.53;7.40;;;9.30;99.90;;;;;;5106350;28;20177;-80
2022/09/21 06:31:52;;;;;;;8.20;6.20;;;9.40;99.90;;;;;;5113929;28;20177;-80
2022/09/21 06:34:19;;;;;;;8.90;6.30;;;9.50;99.90;;;;;;5110804;28;20171;-81
2022/09/21 06:36:47;;;;;;;10.17;6.43;;;9.60;99.90;;;;;;5105762;28;20201;-81
2022/09/21 06:39:16;;;;;;;9.63;6.90;;;9.70;99.90;;;;;;5109121;28;20257;-81
2022/09/21 06:41:43;;;;;;;8.67;6.60;;;9.70;99.90;;;;;;5103590;28;20193;-81
2022/09/21 06:44:11;;;;;;;9.57;7.03;;;9.90;99.90;;;;;;5094998;28;20201;-80
2022/09/21 06:46:38;;;;;;;8.60;7.03;;;10.00;99.90;;;;;;5091686;28;20221;-81
2022/09/21 06:49:05;;;;;;;8.07;6.87;;;10.10;99.90;;;;;;5087276;28;20192;-80
2022/09/21 06:51:33;;;;;;;8.23;7.03;;;10.30;99.90;;;;;;5098809;28;20180;-81
2022/09/21 06:54:01;;;;;;;11.50;7.63;;;10.40;99.90;;;;;;5109047;28;20193;-81
2022/09/21 06:56:30;;;;;;;10.80;7.30;;;10.50;99.90;;;;;;5105180;28;20224;-81
2022/09/21 06:58:57;;;;;;;11.03;6.97;;;10.50;99.90;;;;;;5104754;28;20228;-81
2022/09/21 07:01:25;;;;;;;8.30;6.83;;;10.60;99.90;;;;;;5105444;28;20185;-81
2022/09/21 07:03:53;;;;;;;10.00;6.93;;;10.60;99.90;;;;;;5104321;28;20192;-81
2022/09/21 07:06:20;;;;;;;12.53;6.80;;;10.70;99.90;;;;;;5106403;28;20216;-81
2022/09/21 07:08:51;;;;;;;13.73;7.10;;;10.80;99.90;;;;;;5102099;28;20181;-81
2022/09/21 07:11:18;;;;;;;10.00;7.30;;;10.90;99.90;;;;;;5103241;28;20208;-80
2022/09/21 07:13:57;;;;;;;10.73;7.63;;;11.00;99.90;;;;;;5101801;28;20201;-81
2022/09/21 07:16:24;;;;;;;9.37;7.53;;;11.00;99.90;;;;;;5104567;28;20216;-80
2022/09/21 07:18:52;;;;;;;9.73;7.13;;;11.10;99.90;;;;;;5102284;28;20208;-80
2022/09/21 07:21:19;;;;;;;10.77;6.60;;;11.20;99.90;;;;;;5104033;28;20201;-81
2022/09/21 07:23:47;;;;;;;13.27;7.80;;;11.30;99.90;;;;;;5102300;28;20196;-81
2022/09/21 07:26:15;;;;;;;12.43;7.43;;;11.40;99.90;;;;;;5102490;28;20224;-81
2022/09/21 07:28:42;;;;;;;9.83;6.87;;;11.40;99.90;;;;;;5101319;28;20197;-80
2022/09/21 07:31:13;;;;;;;10.63;7.63;;;11.50;99.90;;;;;;5101796;28;20203;-81
2022/09/21 07:33:41;;;;;;;11.13;7.97;;;11.50;99.90;;;;;;5100992;28;20204;-81
2022/09/21 07:36:10;;;;;;;12.47;8.27;;;11.60;99.90;;;;;;5098233;28;20207;-80
2022/09/21 07:38:38;;;;;;;13.20;9.00;;;11.60;99.90;;;;;;5102138;28;20217;-81
2022/09/21 07:41:06;;;;;;;13.93;9.20;;;11.70;99.90;;;;;;5104138;28;20205;-81
2022/09/21 07:43:34;;;;;;;13.13;7.93;;;11.80;99.90;;;;;;5097994;28;20203;-81
2022/09/21 07:46:01;;;;;;;11.07;7.40;;;11.90;99.90;;;;;;5101328;28;20203;-81
2022/09/21 07:48:30;;;;;;;11.97;7.60;;;12.00;99.90;;;;;;5101689;28;20212;-80
2022/09/21 07:51:04;;;;;;;10.33;7.23;;;12.00;99.90;;;;;;5096779;28;20209;-80
2022/09/21 07:53:32;;;;;;;11.00;7.57;;;12.10;99.90;;;;;;5098467;28;20193;-81
2022/09/21 07:56:04;;;;;;;16.67;9.73;;;12.10;99.90;;;;;;5103169;28;20196;-80
2022/09/21 08:01:16;;;;;;;12.40;8.40;;;12.30;99.90;;;;;;5113109;28;20200;-80
2022/09/21 08:03:48;;;;;;;11.20;7.30;;;12.50;99.90;;;;;;5109066;28;20200;-80
2022/09/21 08:06:15;;;;;;;8.55;6.60;;;12.60;99.90;;;;;;5109328;28;20216;-80
2022/09/21 08:08:43;;;;;;;8.95;6.80;;;12.80;99.90;;;;;;5106074;28;20197;-80
2022/09/21 08:11:10;;;;;;;10.43;6.60;;;12.90;99.90;;;;;;5108371;28;20193;-81
2022/09/21 08:13:38;;;;;;;10.77;6.93;;;12.90;99.90;;;;;;5106326;28;20199;-80
2022/09/21 08:16:06;;;;;;;8.30;6.55;;;13.00;99.90;;;;;;5105722;28;20203;-81
2022/09/21 08:18:37;;;;;;;6.88;4.22;;;13.10;99.90;;;;;;5103949;28;20220;-79
2022/09/21 08:21:07;;;;;;;6.07;3.10;;;13.00;99.90;;;;;;5112115;28;20195;-80
2022/09/21 08:23:39;;;;;;;2.97;1.90;;;13.00;99.90;;;;;;5105066;28;20197;-80
2022/09/21 08:26:07;;;;;;;4.00;2.38;;;12.90;99.90;;;;;;5108013;28;20206;-79
2022/09/21 08:28:35;;;;;;;3.70;2.83;;;12.90;99.90;;;;;;5101503;28;20206;-79
2022/09/21 08:31:05;;;;;;;4.03;2.20;;;12.90;99.90;;;;;;5105548;28;20190;-79
2022/09/21 08:33:32;;;;;;;4.10;2.10;;;13.00;99.90;;;;;;5108122;28;20197;-79
2022/09/21 08:36:01;;;;;;;2.90;1.70;;;13.10;99.90;;;;;;5099402;28;20241;-80
2022/09/21 08:38:33;;;;;;;3.47;2.05;;;13.10;99.90;;;;;;5102370;28;20211;-80
2022/09/21 08:41:02;;;;;;;2.58;1.88;;;13.20;99.90;;;;;;5104722;28;20196;-80
2022/09/21 08:43:35;;;;;;;2.75;1.60;;;13.40;99.90;;;;;;5101889;28;20205;-80
2022/09/21 08:46:06;;;;;;;2.75;2.05;;;13.60;99.90;;;;;;5092440;28;20201;-80
2022/09/21 08:48:40;;;;;;;3.83;1.70;;;13.70;99.90;;;;;;5098612;28;20196;-80
2022/09/21 08:51:11;;;;;;;4.50;1.60;;;13.50;99.90;;;;;;5102948;28;20208;-80
2022/09/21 08:53:43;;;;;;;3.50;1.35;;;13.60;99.90;;;;;;5102849;28;20193;-80
2022/09/21 08:56:12;;;;;;;3.35;1.55;;;13.70;99.90;;;;;;5101377;28;20232;-81
2022/09/21 08:58:40;;;;;;;3.85;1.55;;;13.70;99.90;;;;;;5099037;28;20951;-80
2022/09/21 09:01:26;;;;;;;2.92;1.00;;;13.60;99.90;;;;;;5091019;28;20213;-80
2022/09/21 09:04:09;;;;;;;5.05;1.58;;;13.50;99.90;;;;;;5097210;28;20196;-80
2022/09/21 09:06:42;;;;;;;2.70;1.23;;;13.60;99.90;;;;;;5095772;28;20220;-80
2022/09/21 09:09:37;;;;;;;4.15;1.20;;;13.80;99.90;;;;;;5095914;28;20193;-80
2022/09/21 09:12:27;;;;;;;2.97;1.23;;;13.90;99.90;;;;;;5093730;28;20197;-80
2022/09/21 09:15:17;;;;;;;2.08;0.88;;;13.80;99.90;;;;;;5103205;28;20216;-80
2022/09/21 09:17:52;;;;;;;1.13;0.80;;;14.00;99.90;;;;;;5096603;28;20659;-81
2022/09/21 09:20:24;;;;;;;2.45;0.90;;;14.20;99.90;;;;;;5103265;28;20220;-80
2022/09/21 09:23:02;;;;;;;2.45;0.98;;;14.30;99.90;;;;;;5098540;28;20201;-80
2022/09/21 09:25:36;;;;;;;3.85;1.40;;;14.40;99.90;;;;;;5104038;28;20208;-80
2022/09/21 09:28:30;;;;;;;3.28;1.10;;;14.50;99.90;;;;;;5102655;28;20224;-81
2022/09/21 09:31:02;;;;;;;4.55;1.42;;;14.60;99.90;;;;;;5093235;28;20208;-80
2022/09/21 09:33:40;;;;;;;4.43;1.20;;;14.60;99.90;;;;;;5093825;28;20228;-80
2022/09/21 09:36:11;;;;;;;3.78;1.10;;;14.70;99.90;;;;;;5105900;28;20203;-80
2022/09/21 09:38:41;;;;;;;2.08;1.10;;;14.70;99.90;;;;;;5106915;28;20201;-80
2022/09/21 09:41:38;;;;;;;5.07;1.42;;;14.80;99.90;;;;;;5106821;28;20655;-80
2022/09/21 09:44:19;;;;;;;4.72;1.42;;;14.90;99.90;;;;;;5094005;28;20200;-81
2022/09/21 09:46:57;;;;;;;2.33;1.00;;;15.10;99.90;;;;;;5093806;28;20232;-81
2022/09/21 09:49:36;;;;;;;3.55;1.13;;;15.20;99.90;;;;;;5103549;28;20195;-80
2022/09/21 09:52:05;;;;;;;1.90;1.10;;;15.10;99.90;;;;;;5081204;28;20229;-80
2022/09/21 09:54:35;;;;;;;2.83;1.30;;;14.90;99.90;;;;;;5038879;28;20214;-80
2022/09/21 09:57:06;;;;;;;3.58;0.95;;;14.90;99.90;;;;;;5036725;28;20229;-80
2022/09/21 09:59:39;;;;;;;3.38;1.00;;;15.00;99.90;;;;;;5045060;28;20227;-80
2022/09/21 10:02:18;;;;;;;2.33;1.02;;;15.10;99.90;;;;;;5047586;28;20194;-80
2022/09/21 10:04:57;;;;;;;1.33;1.17;;;15.40;99.90;;;;;;5045957;28;20203;-81
2022/09/21 10:07:34;;;;;;;1.55;0.82;;;15.60;99.90;;;;;;5043601;28;20232;-81
2022/09/21 10:10:02;;;;;;;4.55;1.10;;;15.90;99.90;;;;;;5043425;28;20201;-80
2022/09/21 10:12:31;;;;;;;4.82;1.02;;;16.10;99.90;;;;;;5062309;28;20290;-78
2022/09/21 10:15:00;;;;;;;2.90;0.95;;;16.20;99.90;;;;;;5033379;28;20202;-78
2022/09/21 10:17:28;;;;;;;2.40;1.13;;;16.40;99.20;;;;;;5036267;28;20226;-80
2022/09/21 10:20:04;;;;;;;5.55;1.35;;;16.40;99.60;;;;;;5054950;28;20230;-78
2022/09/21 10:22:31;;;;;;;4.47;1.30;;;16.10;99.10;;;;;;5050783;28;20206;-78
2022/09/21 10:25:00;;;;;;;3.17;0.82;;;16.00;99.90;;;;;;5039683;28;20199;-78
2022/09/21 10:27:33;;;;;;;3.30;1.00;;;16.10;99.90;;;;;;5052058;28;20229;-78
2022/09/21 10:30:01;;;;;;;3.83;1.00;;;16.30;99.90;;;;;;5033128;28;20199;-78
2022/09/21 10:32:29;;;;;;;3.70;1.13;;;16.40;99.90;;;;;;5038282;28;20207;-78
2022/09/21 10:35:12;;;;;;;3.05;0.90;;;16.30;99.00;;;;;;5031654;28;20207;-78
2022/09/21 10:37:41;;;;;;;4.47;0.98;;;16.30;96.70;;;;;;5041408;28;20207;-78
2022/09/21 10:40:24;;;;;;;2.28;0.88;;;16.30;95.20;;;;;;5035102;28;20237;-78
2022/09/21 10:42:57;;;;;;;1.88;0.85;;;16.30;95.90;;;;;;5035108;28;20618;-78
2022/09/21 10:45:26;;;;;;;2.75;0.88;;;16.50;98.80;;;;;;5041457;28;20215;-79
2022/09/21 10:47:57;;;;;;;2.10;0.75;;;16.30;95.20;;;;;;5033931;28;20230;-78
2022/09/21 10:50:29;;;;;;;2.60;0.90;;;16.50;94.80;;;;;;5033544;28;20202;-78
2022/09/21 10:53:01;;;;;;;3.22;0.60;;;16.60;92.10;;;;;;5039279;28;20202;-78
2022/09/21 10:55:31;;;;;;;3.40;0.70;;;16.50;93.00;;;;;;5036112;28;20206;-78
2022/09/21 10:58:00;;;;;;;1.98;1.08;;;16.40;95.40;;;;;;5026628;28;20230;-77
2022/09/21 11:00:41;;;;;;;4.03;1.35;;;16.50;96.00;;;;;;5021094;28;20294;-78
2022/09/21 11:03:40;;;;;;;1.40;0.90;;;16.60;98.50;;;;;;5018109;28;20199;-78
2022/09/21 11:06:13;;;;;;;2.72;0.95;;;16.60;94.70;;;;;;5008543;28;20574;-77
2022/09/21 11:08:46;;;;;;;2.00;0.95;;;17.00;94.20;;;;;;5023503;28;20675;-77
2022/09/21 11:11:38;;;;;;;3.45;1.10;;;17.30;95.00;;;;;;5017617;28;20196;-76
2022/09/21 11:14:30;;;;;;;5.05;0.90;;;17.30;94.30;;;;;;5020506;28;20294;-76
2022/09/21 11:17:01;;;;;;;1.40;0.60;;;17.60;93.20;;;;;;5017467;28;20640;-77
2022/09/21 11:19:34;;;;;;;2.40;0.70;;;17.50;92.60;;;;;;5041070;28;20204;-77
2022/09/21 11:22:08;;;;;;;1.25;0.50;;;17.60;91.60;;;;;;5014240;28;20190;-77
2022/09/21 11:24:45;;;;;;;1.75;0.70;;;17.40;92.90;;;;;;5023105;28;20213;-77
2022/09/21 11:27:17;;;;;;;2.72;0.80;;;17.90;93.30;;;;;;5038778;28;20234;-77
2022/09/21 11:29:56;;;;;;;3.42;1.05;;;18.40;93.50;;;;;;5028247;28;20195;-77
2022/09/21 11:32:49;;;;;;;4.03;1.15;;;18.60;92.00;;;;;;5023702;28;20203;-78
2022/09/21 11:35:46;;;;;;;3.42;0.88;;;18.40;91.20;;;;;;5040861;28;20203;-78
2022/09/21 11:38:25;;;;;;;2.28;1.02;;;18.50;90.50;;;;;;5026458;28;20230;-78
2022/09/21 11:41:09;;;;;;;2.92;0.70;;;18.60;87.30;;;;;;5021420;28;20711;-78
2022/09/21 11:43:56;;;;;;;2.10;0.77;;;18.20;84.60;;;;;;5018953;28;20226;-78
2022/09/21 11:46:31;;;;;;;2.92;1.10;;;17.90;88.70;;;;;;5029858;28;20239;-78
2022/09/21 11:49:15;;;;;;;2.25;0.73;;;17.80;88.00;;;;;;5031769;28;20629;-79
2022/09/21 11:52:00;;;;;;;3.75;0.77;;;17.60;88.60;;;;;;5042201;28;20203;-79
2022/09/21 11:54:56;;;;;;;1.85;0.98;;;17.40;90.60;;;;;;5028036;28;20217;-78
2022/09/21 12:00:14;;;;;;;1.80;0.60;;;17.80;90.50;;;;;;5023088;28;20199;-80
2022/09/21 12:03:21;;;;;;;2.45;0.75;;;18.60;85.20;;;;;;5016789;28;20199;-80
2022/09/21 12:06:06;;;;;;;2.63;0.70;;;19.10;84.60;;;;;;5018409;28;20192;-80
2022/09/21 12:08:48;;;;;;;4.72;1.10;;;18.70;84.00;;;;;;5017168;28;20203;-80
2022/09/21 12:11:26;;;;;;;2.00;0.90;;;18.80;74.80;;;;;;5024160;28;20195;-81
2022/09/21 12:14:01;;;;;;;1.83;1.00;;;19.40;75.00;;;;;;5018762;28;20199;-83
2022/09/21 12:16:38;;;;;;;2.75;0.75;;;20.30;70.40;;;;;;5015434;28;20223;-82
2022/09/21 12:19:18;;;;;;;1.45;0.80;;;20.50;65.90;;;;;;5031423;28;20575;-82
2022/09/21 12:21:48;;;;;;;2.55;0.70;;;20.50;65.90;;;;;;5004737;28;20261;-81
2022/09/21 12:24:21;;;;;;;1.92;0.90;;;20.50;70.00;;;;;;5010705;28;20214;-82
2022/09/21 12:26:58;;;;;;;2.90;0.77;;;21.00;63.50;;;;;;5017405;28;20230;-81
2022/09/21 12:29:30;;;;;;;2.13;0.90;;;20.70;63.10;;;;;;5029606;28;20292;-81
2022/09/21 12:32:03;;;;;;;1.75;0.77;;;21.30;55.20;;;;;;5023099;28;20206;-80
2022/09/21 12:34:40;;;;;;;0.55;0.40;;;20.60;58.10;;;;;;5042127;28;20195;-81
2022/09/21 12:37:13;;;;;;;1.45;0.45;;;21.00;54.10;;;;;;5015968;28;20218;-80
2022/09/21 12:39:46;;;;;;;1.35;0.60;;;22.00;48.40;;;;;;5023521;28;20199;-81
2022/09/21 12:42:27;;;;;;;1.48;0.75;;;21.90;49.20;;;;;;5030116;28;20234;-81
2022/09/21 12:44:59;;;;;;;3.40;0.80;;;22.20;49.10;;;;;;5020577;28;20195;-81
2022/09/21 12:47:47;;;;;;;2.72;0.95;;;21.90;49.20;;;;;;5023409;28;20223;-81
2022/09/21 12:50:22;;;;;;;2.38;0.80;;;22.10;47.10;;;;;;5030384;28;20222;-81
2022/09/21 12:52:51;;;;;;;3.10;1.10;;;21.70;46.30;;;;;;5028925;28;20194;-81
2022/09/21 12:55:40;;;;;;;4.63;0.98;;;21.40;52.00;;;;;;5033621;28;20207;-81
2022/09/21 12:58:17;;;;;;;1.70;1.00;;;22.40;52.30;;;;;;5016891;28;20239;-81
2022/09/21 13:00:51;;;;;;;2.35;0.85;;;23.30;51.60;;;;;;5011728;28;20215;-78
2022/09/21 13:03:27;;;;;;;2.13;1.08;;;23.00;50.40;;;;;;5019067;28;20199;-80
2022/09/21 13:06:19;;;;;;;1.23;1.00;;;22.30;51.10;;;;;;5022650;28;20218;-82
2022/09/21 13:08:47;;;;;;;3.80;1.13;;;22.00;51.30;;;;;;5025697;28;20254;-81
2022/09/21 13:11:19;;;;;;;1.92;0.80;;;22.40;52.80;;;;;;5008604;28;20192;-79
2022/09/21 13:13:51;;;;;;;3.65;1.00;;;22.90;50.30;;;;;;5014104;28;20187;-80
2022/09/21 13:16:26;;;;;;;1.25;0.80;;;22.90;49.70;;;;;;5024733;28;20231;-83
2022/09/21 13:19:00;;;;;;;1.63;0.60;;;22.90;49.00;;;;;;5009286;28;20202;-79
2022/09/21 13:21:31;;;;;;;2.75;0.63;;;22.70;46.20;;;;;;5012356;28;20584;-82
2022/09/21 13:24:01;;;;;;;1.65;0.60;;;22.80;47.00;;;;;;5019413;28;20212;-83
2022/09/21 13:26:39;;;;;;;1.00;0.57;;;23.00;44.30;;;;;;5012839;28;20216;-82